createdAt,value
2023-04-16T00:00:57.632Z,14.10
2023-04-16T00:06:12.593Z,14.20
2023-04-16T00:11:17.127Z,14.38
2023-04-16T00:16:20.719Z,16.25
2023-04-16T00:21:26.702Z,14.98
2023-04-16T00:26:30.484Z,13.80
2023-04-16T00:31:35.015Z,15.65
2023-04-16T00:36:39.877Z,16.65
2023-04-16T00:41:44.737Z,16.92
2023-04-16T00:46:48.244Z,18.52
2023-04-16T00:51:53.060Z,15.90
2023-04-16T00:56:58.284Z,17.10
2023-04-16T01:02:01.839Z,17.17
2023-04-16T01:07:07.216Z,17.08
2023-04-16T01:12:10.910Z,16.92
2023-04-16T01:17:14.342Z,17.35
2023-04-16T01:22:19.172Z,17.67
2023-04-16T01:27:22.586Z,16.83
2023-04-16T01:32:26.395Z,16.98
2023-04-16T01:37:32.151Z,17.23
2023-04-16T01:42:35.582Z,17.02
2023-04-16T01:47:39.141Z,17.45
2023-04-16T01:52:43.971Z,16.48
2023-04-16T01:57:47.399Z,15.85
2023-04-16T02:02:51.128Z,16.02
2023-04-16T02:07:56.035Z,16.13
2023-04-16T02:13:00.316Z,16.75
2023-04-16T02:18:04.421Z,16.67
2023-04-16T02:23:09.356Z,17.35
2023-04-16T02:28:14.137Z,16.60
2023-04-16T02:33:17.931Z,14.35
2023-04-16T02:38:22.651Z,15.57
2023-04-16T02:43:26.150Z,18.90
2023-04-16T02:48:29.626Z,17.00
2023-04-16T02:53:34.567Z,16.48
2023-04-16T02:58:38.313Z,18.00
2023-04-16T03:03:41.737Z,17.75
2023-04-16T03:08:46.511Z,18.02
2023-04-16T03:13:50.062Z,19.60
2023-04-16T03:18:53.571Z,20.63
2023-04-16T03:23:58.320Z,19.85
2023-04-16T03:29:05.421Z,25.00
2023-04-16T03:34:08.827Z,23.40
2023-04-16T03:39:13.640Z,22.67
2023-04-16T03:44:17.272Z,22.88
2023-04-16T03:49:20.933Z,20.65
2023-04-16T03:54:25.783Z,19.98
2023-04-16T03:59:29.612Z,19.35
2023-04-16T04:04:33.333Z,18.70
2023-04-16T04:09:38.125Z,18.88
2023-04-16T04:14:42.243Z,17.50
2023-04-16T04:19:59.929Z,18.25
2023-04-16T04:25:06.114Z,18.35
2023-04-16T04:30:11.089Z,18.80
2023-04-16T04:35:14.539Z,18.95
2023-04-16T04:40:22.064Z,19.40
2023-04-16T04:45:26.774Z,18.15
2023-04-16T04:50:30.665Z,19.75
2023-04-16T04:55:35.993Z,21.00
2023-04-16T05:00:39.499Z,22.08
2023-04-16T05:05:43.167Z,20.05
2023-04-16T05:10:47.959Z,18.15
2023-04-16T05:15:51.743Z,18.13
2023-04-16T05:20:55.930Z,18.25
2023-04-16T05:26:00.757Z,19.98
2023-04-16T05:31:04.239Z,23.75
2023-04-16T05:36:08.080Z,20.63
2023-04-16T05:41:12.801Z,21.08
2023-04-16T05:46:16.271Z,22.27
2023-04-16T05:51:20.163Z,21.55
2023-04-16T05:56:25.526Z,20.83
2023-04-16T06:01:29.199Z,21.48
2023-04-16T06:06:32.653Z,21.48
2023-04-16T06:11:37.744Z,22.55
2023-04-16T06:16:41.500Z,21.48
2023-04-16T06:21:44.972Z,20.15
2023-04-16T06:26:50.023Z,21.13
2023-04-16T06:31:53.883Z,20.80
2023-04-16T06:36:57.375Z,21.33
2023-04-16T06:42:02.389Z,20.58
2023-04-16T06:47:06.033Z,20.65
2023-04-16T06:52:09.829Z,22.35
2023-04-16T06:57:14.697Z,19.92
2023-04-16T07:02:19.956Z,21.05
2023-04-16T07:07:23.781Z,23.75
2023-04-16T07:12:28.672Z,23.38
2023-04-16T07:17:33.024Z,24.85
2023-04-16T07:22:36.541Z,23.55
2023-04-16T07:27:41.554Z,22.77
2023-04-16T07:32:45.067Z,21.60
2023-04-16T07:37:48.485Z,21.73
2023-04-16T07:42:53.511Z,23.98
2023-04-16T07:47:57.023Z,22.45
2023-04-16T07:53:00.527Z,20.73
2023-04-16T07:58:06.488Z,20.30
2023-04-16T08:03:10.062Z,23.33
2023-04-16T08:08:13.700Z,22.75
2023-04-16T08:13:18.394Z,21.90
2023-04-16T08:18:21.861Z,19.98
2023-04-16T08:23:25.311Z,20.70
2023-04-16T08:28:30.136Z,21.13
2023-04-16T08:33:33.599Z,19.17
2023-04-16T08:38:37.098Z,17.08
2023-04-16T08:43:46.190Z,15.85
2023-04-16T08:48:51.727Z,14.50
2023-04-16T08:54:00.814Z,14.65
2023-04-16T08:59:06.377Z,11.85
2023-04-16T09:04:10.846Z,10.70
2023-04-16T09:09:15.831Z,9.32
2023-04-16T09:14:20.993Z,8.45
2023-04-16T09:19:24.947Z,7.30
2023-04-16T09:24:29.714Z,7.00
2023-04-16T09:29:38.868Z,8.35
2023-04-16T09:34:56.693Z,9.40
2023-04-16T09:40:01.952Z,7.05
2023-04-16T10:55:03.799Z,7.35
2023-04-16T11:00:23.978Z,6.97
2023-04-16T11:05:46.897Z,5.68
2023-04-16T11:10:53.010Z,5.97
2023-04-16T11:15:59.039Z,5.93
2023-04-16T11:21:02.703Z,4.07
2023-04-16T11:26:20.871Z,2.53
2023-04-16T11:31:27.313Z,2.63
2023-04-16T11:36:44.185Z,1.83
2023-04-16T11:41:50.533Z,2.08
2023-04-16T11:46:55.064Z,1.88
2023-04-16T11:51:59.168Z,1.58
2023-04-16T11:57:05.037Z,1.60
2023-04-16T12:02:08.588Z,1.75
2023-04-16T12:07:13.889Z,2.28
2023-04-16T12:12:30.702Z,1.70
2023-04-16T12:17:35.618Z,2.05
2023-04-16T12:22:40.121Z,2.00
2023-04-16T12:27:48.015Z,1.90
2023-04-16T12:32:56.055Z,3.42
2023-04-16T12:38:01.098Z,2.83
2023-04-16T12:43:06.220Z,2.40
2023-04-16T12:48:09.698Z,3.90
2023-04-16T12:53:13.264Z,3.90
2023-04-16T12:58:18.291Z,3.38
2023-04-16T13:03:22.083Z,2.83
2023-04-16T13:08:25.760Z,3.03
2023-04-16T13:13:30.974Z,3.40
2023-04-16T13:18:34.695Z,3.20
2023-04-16T13:23:38.104Z,2.90
2023-04-16T13:28:43.210Z,3.10
2023-04-16T13:33:46.684Z,2.80
2023-04-16T13:38:50.579Z,3.20
2023-04-16T13:43:55.482Z,2.97
2023-04-16T13:48:58.897Z,2.97
2023-04-16T13:54:02.337Z,2.90
2023-04-16T13:59:07.494Z,2.90
2023-04-16T14:04:11.302Z,3.28
2023-04-16T14:09:14.689Z,2.88
2023-04-16T14:14:19.422Z,3.05
2023-04-16T14:19:23.144Z,2.63
2023-04-16T14:24:26.801Z,3.17
2023-04-16T14:29:32.418Z,3.00
2023-04-16T14:34:35.901Z,3.10
2023-04-16T14:39:39.663Z,3.00
2023-04-16T14:44:44.377Z,3.35
2023-04-16T14:49:47.785Z,2.60
2023-04-16T14:54:52.268Z,3.08
2023-04-16T14:59:57.053Z,2.80
2023-04-16T15:05:01.427Z,2.85
2023-04-16T15:10:05.541Z,2.95
2023-04-16T15:15:11.693Z,3.38
2023-04-16T15:20:15.969Z,3.42
2023-04-16T15:25:19.580Z,2.53
2023-04-16T15:30:25.148Z,3.40
2023-04-16T15:35:29.072Z,3.45
2023-04-16T15:40:32.536Z,3.30
2023-04-16T15:45:37.553Z,2.55
2023-04-16T15:50:41.081Z,3.05
2023-04-16T15:55:44.558Z,2.50
2023-04-16T16:00:50.312Z,3.40
2023-04-16T16:05:54.069Z,3.05
2023-04-16T16:10:57.509Z,3.33
2023-04-16T16:16:03.397Z,3.15
2023-04-16T16:21:07.130Z,3.42
2023-04-16T16:26:10.565Z,4.05
2023-04-16T16:31:15.810Z,4.28
2023-04-16T16:36:19.474Z,4.30
2023-04-16T16:41:23.811Z,4.20
2023-04-16T16:46:28.909Z,4.47
2023-04-16T16:51:33.637Z,4.22
2023-04-16T16:56:37.663Z,5.25
2023-04-16T17:01:42.581Z,5.10
2023-04-16T17:06:46.116Z,4.80
2023-04-16T17:11:49.613Z,4.45
2023-04-16T17:16:57.027Z,4.20
2023-04-16T17:22:00.739Z,3.60
2023-04-16T17:27:04.614Z,3.30
2023-04-16T17:32:09.730Z,4.20
2023-04-16T17:37:14.106Z,4.07
2023-04-16T17:42:17.637Z,3.45
2023-04-16T17:47:22.475Z,3.00
2023-04-16T17:52:26.037Z,3.80
2023-04-16T17:57:29.739Z,3.75
2023-04-16T18:02:34.654Z,3.58
2023-04-16T18:07:39.053Z,3.65
2023-04-16T18:12:42.467Z,3.70
2023-04-16T18:17:47.295Z,3.58
2023-04-16T18:22:50.720Z,4.45
2023-04-16T18:27:54.414Z,5.00
2023-04-16T18:33:33.539Z,5.68
2023-04-16T18:38:23.150Z,5.65
2023-04-16T18:43:26.630Z,5.50
2023-04-16T18:48:31.780Z,6.35
2023-04-16T18:53:35.684Z,6.40
2023-04-16T18:58:39.089Z,9.00
2023-04-16T19:03:47.471Z,8.80
2023-04-16T19:08:51.076Z,7.95
2023-04-16T19:13:54.941Z,8.20
2023-04-16T19:19:00.048Z,8.18
2023-04-16T19:24:03.637Z,6.25
2023-04-16T19:29:07.298Z,7.53
2023-04-16T19:34:12.102Z,7.97
2023-04-16T19:39:15.660Z,9.07
2023-04-16T19:44:19.476Z,9.38
2023-04-16T19:49:25.254Z,8.60
2023-04-16T19:54:28.768Z,9.75
2023-04-16T19:59:32.679Z,8.52
2023-04-16T20:04:37.663Z,10.10
2023-04-16T20:09:41.193Z,10.13
2023-04-16T20:14:44.913Z,10.93
2023-04-16T20:19:51.225Z,11.73
2023-04-16T20:24:55.176Z,12.48
2023-04-16T20:29:58.708Z,11.55
2023-04-16T20:35:10.192Z,11.98
2023-04-16T20:40:14.971Z,11.88
2023-04-16T20:45:18.604Z,12.35
2023-04-16T20:50:24.657Z,10.80
2023-04-16T20:55:28.161Z,12.40
2023-04-16T21:00:31.567Z,11.98
2023-04-16T21:05:36.987Z,11.25
2023-04-16T21:10:41.875Z,15.13
2023-04-16T21:15:46.073Z,12.98
2023-04-16T21:20:51.256Z,12.90
2023-04-16T21:25:56.543Z,12.38
2023-04-16T21:31:00.017Z,11.80
2023-04-16T21:36:05.101Z,11.75
2023-04-16T21:41:08.481Z,10.88
2023-04-16T21:46:12.363Z,10.63
2023-04-16T21:51:18.219Z,10.90
2023-04-16T21:56:21.656Z,12.05
2023-04-16T22:01:25.134Z,10.85
2023-04-16T22:06:30.036Z,12.07
2023-04-16T22:11:33.440Z,11.55
2023-04-16T22:16:36.989Z,10.82
2023-04-16T22:21:42.325Z,11.45
2023-04-16T22:26:45.997Z,10.80
2023-04-16T22:31:49.451Z,11.63
2023-04-16T22:36:54.284Z,12.30
2023-04-16T22:41:57.700Z,11.50
2023-04-16T22:47:01.077Z,12.00
2023-04-16T22:52:06.170Z,13.20
2023-04-16T22:57:09.630Z,13.25
2023-04-16T23:02:13.189Z,12.75
2023-04-16T23:07:18.020Z,13.07
2023-04-16T23:12:21.483Z,12.38
2023-04-16T23:17:25.221Z,14.60
2023-04-16T23:22:30.536Z,14.73
2023-04-16T23:27:34.024Z,15.73
2023-04-16T23:32:37.455Z,16.90
2023-04-16T23:37:42.656Z,17.25
2023-04-16T23:42:46.165Z,17.05
2023-04-16T23:47:50.824Z,16.13
2023-04-16T23:52:55.649Z,18.33
2023-04-16T23:57:59.019Z,17.05
